Aérodrome :
LOGIN :

S'inscrire | Disclaimer

   EN    FR    IT 

 










Légende :    VFR   VFR Marginal   IFR   IFR Intensif   IFR Très Intensif
Visi : 
Plafond : 
>= 8 km
>= 3000ft
5 à 8 km
1000 à 3000 ft
1500m à 5 km
500 à 1000 ft
800 à 1500m
200 à 500 ft
< 800m
< 200 ft
Symboles :   Orages  Brouillard  Fortes neiges  Fortes précipitations  Vent > 20 kt
SIGMETs :   Divers  Orages  Givrage  Turbulence  Onde Orograph.  Cendres Volcan.






- Altitude de l'aérodrome : 313 ft


LFQA - Reims-Prunay

DERNIER METAR :
  • 150300Z AUTO 21005KT 180V250 9999 RA BKN011/// OVC066/// ///TCU 15/13 Q1007

METARs EXPIRÉS :
  • 150230Z AUTO 19007KT 150V230 9999 -RA ///CB 15/13 Q1006
  • 150200Z AUTO VRB02KT 9999 ///TCU 15/13 Q1006
  • 150130Z AUTO 20008KT 9999 -RA FEW016/// OVC066/// ///CB 15/13 Q1007
  • 150100Z AUTO 00000KT 9999 FEW015/// BKN066/// BKN082/// ///TCU 15/12 Q1007
  • 150030Z AUTO 20007KT 180V240 CAVOK 15/12 Q1007

TAF N/A



MET'MAP, la Météo Aéronautique d'un coup d'oeil ! - Copyright ORBIFLY Décembre 2007 - Disclaimer

ORBIFLY MET'MAP TEAM :

Programmation & Développement : Alexandra Zaïnal
Conception & Développement : Baudouin d'Aumeries
Co-Programmation & Développement : Marc-Olivier Méhu
Soutien technique & logistique : Manuel Goepfert

Contact : metmap@orbifly.com




SOURCES & CREDITS :

   NOAA